Time;durP1;ratioP1;P1;durP2;ratioP2;P2;SDS_P1;SDS_P2;PMS_P1;PMS_P2;Temp;Humidity;BMP_temperature;BMP_pressure;BME280_temperature;BME280_humidity;BME280_pressure;Samples;Min_cycle;Max_cycle;Signal;HPM_P1;HPM_P2
2023/03/17 00:02:10;;;;;;;8.23;3.42;;;;;;;-1.64;100.00;99604.03;5136928;27;20290;-66
2023/03/17 00:04:37;;;;;;;11.32;3.38;;;;;;;-1.63;100.00;99626.34;5136440;27;20107;-66
2023/03/17 00:07:05;;;;;;;8.57;3.17;;;;;;;-1.64;100.00;99636.31;5137355;27;20097;-66
2023/03/17 00:09:31;;;;;;;12.68;4.20;;;;;;;-1.67;100.00;99647.59;5140120;28;20435;-65
2023/03/17 00:11:57;;;;;;;8.38;3.45;;;;;;;-1.68;100.00;99652.19;5140460;28;20089;-66
2023/03/17 00:14:23;;;;;;;7.47;2.63;;;;;;;-1.72;100.00;99671.81;5140486;27;20059;-58
2023/03/17 00:16:52;;;;;;;7.75;3.17;;;;;;;-1.75;100.00;99673.16;5140059;28;20051;-64
2023/03/17 00:19:25;;;;;;;9.48;3.63;;;;;;;-1.76;100.00;99670.75;5140104;27;20078;-64
2023/03/17 00:21:52;;;;;;;9.93;3.33;;;;;;;-1.82;100.00;99679.91;5139974;28;20056;-60
2023/03/17 00:24:18;;;;;;;9.63;3.30;;;;;;;-1.81;100.00;99689.56;5140023;28;20138;-62
2023/03/17 00:26:43;;;;;;;17.65;3.80;;;;;;;-1.80;100.00;99696.53;5139936;27;20047;-61
2023/03/17 00:31:56;;;;;;;11.70;4.10;;;;;;;-1.86;100.00;99730.69;5139796;27;20177;-61
2023/03/17 00:34:22;;;;;;;14.23;5.00;;;;;;;-1.92;100.00;99742.53;5140024;27;20408;-63
2023/03/17 00:36:50;;;;;;;8.48;3.35;;;;;;;-1.92;100.00;99755.94;5139557;27;20051;-66
2023/03/17 00:39:17;;;;;;;13.82;4.18;;;;;;;-1.88;100.00;99769.66;5139434;28;20061;-63
2023/03/17 00:41:43;;;;;;;8.55;3.78;;;;;;;-1.87;100.00;99784.69;5139803;28;20094;-60
2023/03/17 00:44:09;;;;;;;16.67;4.05;;;;;;;-1.93;100.00;99790.09;5139704;28;20083;-61
2023/03/17 00:46:36;;;;;;;12.80;3.80;;;;;;;-1.92;100.00;99801.63;5139769;28;20420;-64
2023/03/17 00:49:09;;;;;;;14.75;4.25;;;;;;;-1.95;100.00;99802.97;5139430;28;20154;-67
2023/03/17 00:51:36;;;;;;;11.55;4.43;;;;;;;-1.92;100.00;99804.31;5139640;27;20051;-62
2023/03/17 00:54:02;;;;;;;24.15;4.25;;;;;;;-1.93;100.00;99810.78;5139256;28;20047;-61
2023/03/17 00:56:28;;;;;;;18.40;4.32;;;;;;;-1.87;100.00;99814.25;5139312;27;20146;-60
2023/03/17 00:58:55;;;;;;;14.60;3.88;;;;;;;-1.88;100.00;99804.59;5139144;28;20150;-62
2023/03/17 01:01:21;;;;;;;13.38;4.25;;;;;;;-1.94;100.00;99799.19;5139697;27;20079;-62
2023/03/17 01:03:47;;;;;;;11.55;4.30;;;;;;;-2.06;100.00;99795.97;5139078;27;20331;-64
2023/03/17 01:06:14;;;;;;;12.07;4.22;;;;;;;-1.94;100.00;99814.53;5139062;27;20404;-66
2023/03/17 01:08:41;;;;;;;13.13;3.40;;;;;;;-1.94;100.00;99806.47;5139637;28;20047;-62
2023/03/17 01:11:14;;;;;;;14.20;3.95;;;;;;;-1.95;100.00;99819.09;5139022;28;20051;-64
2023/03/17 01:13:41;;;;;;;10.75;3.50;;;;;;;-1.98;100.00;99811.56;5139384;28;20047;-63
2023/03/17 01:16:09;;;;;;;13.73;4.28;;;;;;;-1.99;100.00;99812.66;5139128;27;20138;-66
2023/03/17 01:18:35;;;;;;;8.35;3.65;;;;;;;-2.01;100.00;99827.41;5138236;27;20086;-62
2023/03/17 01:21:01;;;;;;;10.32;3.45;;;;;;;-2.07;100.00;99823.91;5138726;27;20057;-65
2023/03/17 01:23:27;;;;;;;9.50;3.75;;;;;;;-2.05;100.00;99842.44;5139315;27;20142;-60
2023/03/17 01:25:53;;;;;;;11.68;3.97;;;;;;;-2.11;100.00;99851.56;5138855;27;20047;-63
2023/03/17 01:28:20;;;;;;;20.38;4.75;;;;;;;-2.07;100.00;99864.19;5139191;27;20142;-67
2023/03/17 01:30:47;;;;;;;11.73;4.03;;;;;;;-2.03;100.00;99873.38;5139004;28;20057;-63
2023/03/17 01:33:13;;;;;;;14.32;4.13;;;;;;;-2.13;100.00;99866.06;5138899;27;20104;-61
2023/03/17 01:35:41;;;;;;;14.95;3.50;;;;;;;-2.08;100.00;99869.84;5138630;27;20058;-62
2023/03/17 01:38:07;;;;;;;16.17;4.47;;;;;;;-2.15;100.00;99865.53;5138495;28;20055;-67
2023/03/17 01:40:35;;;;;;;13.45;3.92;;;;;;;-2.15;100.00;99873.59;5138706;28;20047;-60
2023/03/17 01:43:16;;;;;;;10.95;3.38;;;;;;;-2.14;100.00;99883.25;5138692;27;20094;-62
2023/03/17 01:46:19;;;;;;;7.63;3.28;;;;;;;-2.17;100.00;99891.03;5138896;28;20061;-59
2023/03/17 01:48:52;;;;;;;14.18;3.65;;;;;;;-2.17;100.00;99891.03;5138399;27;20051;-64
2023/03/17 01:51:24;;;;;;;7.78;3.28;;;;;;;-2.22;100.00;99891.03;5138401;28;20118;-62
2023/03/17 01:53:52;;;;;;;8.27;3.47;;;;;;;-2.15;100.00;99911.19;5138511;28;20078;-58
2023/03/17 01:56:18;;;;;;;8.82;3.10;;;;;;;-2.20;100.00;99908.50;5138504;27;20058;-64
2023/03/17 01:58:46;;;;;;;8.93;3.78;;;;;;;-2.23;100.00;99909.03;5138436;28;20055;-64
2023/03/17 02:01:12;;;;;;;9.80;3.42;;;;;;;-2.21;100.00;99906.06;5138400;28;20051;-65
2023/03/17 02:03:39;;;;;;;9.27;3.13;;;;;;;-2.17;100.00;99910.63;5138571;28;20051;-66
2023/03/17 02:06:06;;;;;;;7.75;3.05;;;;;;;-2.21;100.00;99896.13;5138372;27;20086;-62
2023/03/17 02:08:32;;;;;;;13.55;3.72;;;;;;;-2.21;100.00;99892.63;5138566;27;20047;-64
2023/03/17 02:10:59;;;;;;;10.50;3.45;;;;;;;-2.26;100.00;99885.38;5138125;27;20050;-65
2023/03/17 02:13:25;;;;;;;10.70;3.45;;;;;;;-2.25;100.00;99894.22;5138559;28;20051;-66
2023/03/17 02:15:52;;;;;;;9.90;3.63;;;;;;;-2.26;100.00;99908.75;5138020;28;20047;-61
2023/03/17 02:18:20;;;;;;;10.25;2.90;;;;;;;-2.28;100.00;99902.81;5138144;28;20077;-68
2023/03/17 02:21:30;;;;;;;13.30;4.18;;;;;;;-2.29;100.00;99914.63;5138499;27;20141;-61
2023/03/17 02:23:57;;;;;;;9.50;3.30;;;;;;;-2.29;100.00;99926.19;5116839;27;20377;-60
2023/03/17 02:26:25;;;;;;;10.45;2.95;;;;;;;-2.35;100.00;99931.78;5137834;27;20130;-62
2023/03/17 02:28:51;;;;;;;8.65;3.03;;;;;;;-2.34;100.00;99936.88;5138069;28;20477;-65
2023/03/17 02:31:17;;;;;;;11.50;3.22;;;;;;;-2.31;100.00;99939.06;5137804;27;20043;-62
2023/03/17 02:33:43;;;;;;;10.65;3.22;;;;;;;-2.35;100.00;99942.53;5137850;27;20047;-61
2023/03/17 02:36:09;;;;;;;4.70;2.63;;;;;;;-2.33;100.00;99949.25;5137900;27;20108;-61
2023/03/17 02:38:36;;;;;;;8.48;3.47;;;;;;;-2.37;100.00;99946.28;5137824;27;20043;-61
2023/03/17 02:41:02;;;;;;;12.48;3.53;;;;;;;-2.33;100.00;99945.75;5137876;27;20146;-62
2023/03/17 02:43:28;;;;;;;9.93;3.30;;;;;;;-2.38;100.00;99943.84;5137660;27;20055;-66
2023/03/17 02:45:54;;;;;;;18.13;4.15;;;;;;;-2.35;100.00;99945.22;5137770;28;20059;-67
2023/03/17 02:48:21;;;;;;;7.85;2.55;;;;;;;-2.31;100.00;99959.72;5137914;27;20141;-65
2023/03/17 02:50:46;;;;;;;10.80;3.55;;;;;;;-2.34;100.00;99953.00;5137583;28;20047;-66
2023/03/17 02:53:12;;;;;;;10.43;4.00;;;;;;;-2.31;100.00;99949.78;5137834;27;20053;-63
2023/03/17 02:55:40;;;;;;;13.80;3.72;;;;;;;-2.33;100.00;99943.06;5137519;28;20116;-61
2023/03/17 02:58:06;;;;;;;11.52;3.78;;;;;;;-2.31;100.00;99949.78;5137744;28;20146;-66
2023/03/17 03:00:32;;;;;;;6.43;3.35;;;;;;;-2.35;100.00;99955.94;5137466;28;20050;-61
2023/03/17 03:02:58;;;;;;;14.18;3.60;;;;;;;-2.36;100.00;99949.78;5137755;27;20089;-61
2023/03/17 03:05:24;;;;;;;11.95;3.95;;;;;;;-2.37;100.00;99957.03;5137492;27;20047;-60
2023/03/17 03:07:51;;;;;;;11.68;2.92;;;;;;;-2.33;100.00;99954.63;5137558;27;20082;-60
2023/03/17 03:10:17;;;;;;;8.80;3.90;;;;;;;-2.33;100.00;99945.75;5139497;28;20416;-59
2023/03/17 03:12:44;;;;;;;11.77;3.15;;;;;;;-2.32;100.00;99942.00;5139047;27;20073;-59
2023/03/17 03:15:10;;;;;;;6.68;3.17;;;;;;;-2.32;100.00;99929.38;5137274;27;20452;-60
2023/03/17 03:17:36;;;;;;;8.52;3.47;;;;;;;-2.37;100.00;99927.50;5137210;28;20051;-61
2023/03/17 03:20:03;;;;;;;8.02;2.53;;;;;;;-2.33;100.00;99929.63;5137491;28;20340;-60
2023/03/17 03:22:29;;;;;;;13.88;2.83;;;;;;;-2.34;100.00;99923.44;5137205;28;20373;-66
2023/03/17 03:24:54;;;;;;;8.15;3.25;;;;;;;-2.42;100.00;99913.22;5137046;28;20099;-66
2023/03/17 03:27:20;;;;;;;12.80;3.30;;;;;;;-2.31;100.00;99924.81;5137331;28;20476;-64
2023/03/17 03:29:47;;;;;;;14.13;2.88;;;;;;;-2.33;100.00;99918.88;5137493;28;20155;-61
2023/03/17 03:32:13;;;;;;;7.40;2.80;;;;;;;-2.32;100.00;99917.84;5136916;27;20130;-60
2023/03/17 03:34:39;;;;;;;11.70;2.75;;;;;;;-2.30;100.00;99902.25;5136815;27;20058;-63
2023/03/17 03:37:05;;;;;;;13.07;3.20;;;;;;;-2.29;100.00;99904.69;5137186;28;20043;-67
2023/03/17 03:39:31;;;;;;;9.90;3.15;;;;;;;-2.29;100.00;99904.69;5136770;27;20404;-64
2023/03/17 03:41:57;;;;;;;12.48;2.90;;;;;;;-2.28;100.00;99894.75;5137406;27;20051;-61
2023/03/17 03:44:23;;;;;;;7.35;4.00;;;;;;;-2.31;100.00;99892.59;5140637;28;20073;-58
2023/03/17 03:46:50;;;;;;;14.88;3.22;;;;;;;-2.35;100.00;99891.50;5140778;28;20043;-63
2023/03/17 03:49:16;;;;;;;9.15;3.65;;;;;;;-2.29;100.00;99891.25;5140503;27;20341;-64
2023/03/17 03:51:42;;;;;;;9.80;3.58;;;;;;;-2.28;100.00;99900.13;5140647;27;20078;-62
2023/03/17 03:54:08;;;;;;;11.05;3.72;;;;;;;-2.46;100.00;99894.13;5140367;27;20055;-62
2023/03/17 03:56:34;;;;;;;7.80;3.55;;;;;;;-2.54;100.00;99894.63;5140595;27;20137;-62
2023/03/17 03:59:00;;;;;;;5.90;3.05;;;;;;;-2.38;100.00;99907.06;5140089;28;20099;-62
2023/03/17 04:01:27;;;;;;;6.50;2.60;;;;;;;-2.37;100.00;99894.44;5140685;27;20266;-64
2023/03/17 04:03:53;;;;;;;10.93;3.88;;;;;;;-2.34;100.00;99899.28;5140079;28;20043;-61
2023/03/17 04:06:19;;;;;;;11.80;2.72;;;;;;;-2.37;100.00;99900.63;5140331;27;20141;-63
2023/03/17 04:08:45;;;;;;;14.40;3.10;;;;;;;-2.39;100.00;99901.97;5140158;28;20043;-61
2023/03/17 04:11:11;;;;;;;6.55;2.97;;;;;;;-2.38;100.00;99901.69;5140038;27;20085;-61
2023/03/17 04:13:37;;;;;;;5.50;2.13;;;;;;;-2.38;100.00;99899.00;5140357;27;20083;-60
2023/03/17 04:16:04;;;;;;;12.15;2.50;;;;;;;-2.42;100.00;99886.38;5140184;28;20047;-66
2023/03/17 04:18:30;;;;;;;8.05;2.28;;;;;;;-2.43;100.00;99885.56;5140277;27;20119;-66
2023/03/17 04:20:57;;;;;;;7.85;2.92;;;;;;;-2.36;100.00;99885.31;5140249;27;20095;-62
2023/03/17 04:23:23;;;;;;;9.70;2.60;;;;;;;-2.34;100.00;99882.38;5140272;27;20137;-61
2023/03/17 04:25:49;;;;;;;8.70;3.22;;;;;;;-2.33;100.00;99879.44;5139813;28;20405;-61
2023/03/17 04:28:15;;;;;;;6.82;2.47;;;;;;;-2.34;100.00;99869.75;5140221;27;20109;-59
2023/03/17 04:30:41;;;;;;;6.97;1.90;;;;;;;-2.33;100.00;99857.94;5139740;28;20492;-62
2023/03/17 04:33:07;;;;;;;8.13;2.55;;;;;;;-2.29;100.00;99867.09;5140073;28;20065;-64
2023/03/17 04:35:33;;;;;;;6.70;2.25;;;;;;;-2.25;100.00;99868.19;5139857;27;20138;-67
2023/03/17 04:38:38;;;;;;;8.00;2.50;;;;;;;-2.23;100.00;99886.69;5139463;28;20051;-66
2023/03/17 04:41:05;;;;;;;7.90;2.70;;;;;;;-2.23;100.00;99884.00;5139875;27;20143;-61
2023/03/17 04:43:31;;;;;;;9.70;2.75;;;;;;;-2.22;100.00;99899.09;5139471;28;20080;-62
2023/03/17 04:45:57;;;;;;;11.52;3.88;;;;;;;-2.17;100.00;99910.63;5139870;27;20043;-64
2023/03/17 04:48:23;;;;;;;7.53;2.58;;;;;;;-2.13;100.00;99925.19;5139259;27;20379;-68
2023/03/17 04:50:50;;;;;;;5.45;2.40;;;;;;;-2.07;100.00;99931.38;5139744;27;20464;-69
2023/03/17 04:53:16;;;;;;;7.88;2.70;;;;;;;-2.05;100.00;99923.84;5138906;27;20054;-61
2023/03/17 04:55:42;;;;;;;6.32;2.95;;;;;;;-1.97;100.00;99923.34;5139422;27;20062;-67
2023/03/17 04:58:09;;;;;;;14.80;3.67;;;;;;;-1.93;100.00;99912.91;5139312;27;20050;-69
2023/03/17 05:00:37;;;;;;;9.23;3.45;;;;;;;-1.91;100.00;99887.34;5139337;27;20055;-66
2023/03/17 05:03:04;;;;;;;11.25;4.15;;;;;;;-1.79;100.00;99887.13;5139133;28;20168;-65
2023/03/17 05:05:30;;;;;;;9.60;3.70;;;;;;;-1.32;100.00;99894.19;5138988;27;20047;-61
2023/03/17 05:07:56;;;;;;;9.40;4.15;;;;;;;-0.46;100.00;99862.03;5139133;28;20396;-64
2023/03/17 05:10:22;;;;;;;12.30;3.58;;;;;;;0.44;100.00;99708.88;5138886;28;20447;-67
2023/03/17 05:12:48;;;;;;;5.38;2.75;;;;;;;1.13;100.00;99441.31;5138704;28;20043;-64
2023/03/17 05:15:14;;;;;;;10.07;3.42;;;;;;;1.83;100.00;99205.16;5138509;28;20047;-70
2023/03/17 05:17:40;;;;;;;11.43;3.97;;;;;;;2.23;100.00;99116.03;5138658;28;20162;-65
2023/03/17 05:20:08;;;;;;;7.32;2.97;;;;;;;2.75;100.00;99137.91;5138752;28;20167;-66
2023/03/17 05:22:34;;;;;;;6.85;2.95;;;;;;;3.11;100.00;99239.84;5137812;28;20416;-62
2023/03/17 05:25:00;;;;;;;11.85;3.80;;;;;;;3.64;100.00;99345.38;5118272;28;20058;-58
2023/03/17 05:27:26;;;;;;;14.35;4.07;;;;;;;4.23;100.00;99423.72;5118338;28;20051;-62
2023/03/17 05:29:52;;;;;;;8.88;3.78;;;;;;;4.54;100.00;99482.56;5118175;28;20048;-65
2023/03/17 05:32:19;;;;;;;15.85;4.32;;;;;;;5.20;100.00;99532.16;5118290;28;20153;-66
2023/03/17 05:34:45;;;;;;;8.43;3.67;;;;;;;5.50;100.00;99582.03;5118015;28;20051;-60
2023/03/17 05:37:11;;;;;;;10.27;3.33;;;;;;;5.76;100.00;99617.34;5118195;28;20054;-63
2023/03/17 05:39:37;;;;;;;8.02;3.15;;;;;;;5.94;100.00;99663.66;5117721;28;20051;-68
2023/03/17 05:42:04;;;;;;;11.32;3.22;;;;;;;6.03;100.00;99684.31;5118204;28;20111;-67
2023/03/17 05:44:30;;;;;;;13.13;3.10;;;;;;;6.38;100.00;99699.78;5117730;28;20130;-60
2023/03/17 05:46:58;;;;;;;12.02;2.90;;;;;;;7.04;100.00;99725.53;5118319;28;20047;-67
2023/03/17 05:49:25;;;;;;;23.33;4.00;;;;;;;6.70;100.00;99739.28;5116776;28;20047;-64
2023/03/17 05:51:50;;;;;;;11.52;3.35;;;;;;;7.18;100.00;99749.84;5118084;28;20135;-68
2023/03/17 05:54:16;;;;;;;6.93;3.15;;;;;;;7.35;100.00;99750.91;5117651;28;20105;-71
2023/03/17 05:56:42;;;;;;;16.13;4.20;;;;;;;7.47;100.00;99756.47;5117702;28;20061;-70
2023/03/17 05:59:09;;;;;;;12.05;3.17;;;;;;;7.53;100.00;99766.03;5117644;28;20058;-70
2023/03/17 06:01:35;;;;;;;9.20;2.80;;;;;;;7.87;100.00;99772.44;5117406;28;20047;-71
2023/03/17 06:04:02;;;;;;;7.47;3.25;;;;;;;8.15;100.00;99778.16;5117386;28;20054;-66
2023/03/17 06:06:28;;;;;;;8.00;3.90;;;;;;;8.21;100.00;99782.28;5116451;28;20047;-65
2023/03/17 06:08:54;;;;;;;9.25;3.40;;;;;;;8.46;98.18;99792.22;5117764;28;20171;-66
2023/03/17 06:11:20;;;;;;;12.80;3.92;;;;;;;8.74;100.00;99786.16;5117325;28;20044;-70
2023/03/17 06:13:46;;;;;;;7.65;3.10;;;;;;;8.70;89.89;99799.72;5117538;28;20479;-71
2023/03/17 06:16:13;;;;;;;8.55;3.22;;;;;;;9.26;87.56;99809.41;5117210;28;20055;-68
2023/03/17 06:18:39;;;;;;;10.68;3.65;;;;;;;9.68;85.28;99809.22;5117564;28;20047;-71
2023/03/17 06:21:06;;;;;;;13.05;4.03;;;;;;;9.64;84.88;99828.25;5117121;28;20051;-65
2023/03/17 06:23:32;;;;;;;8.50;3.50;;;;;;;9.86;83.73;99819.59;5117102;28;20047;-65
2023/03/17 06:25:59;;;;;;;6.65;3.40;;;;;;;10.18;80.69;99827.97;5117284;28;20372;-70
2023/03/17 06:28:25;;;;;;;18.92;2.88;;;;;;;10.20;73.99;99839.38;5116988;28;20411;-65
2023/03/17 06:30:51;;;;;;;9.45;4.32;;;;;;;10.59;76.81;99842.50;5117469;28;20048;-66
2023/03/17 06:33:18;;;;;;;8.70;2.70;;;;;;;10.47;73.70;99843.34;5117995;28;20055;-68
2023/03/17 06:35:44;;;;;;;4.90;2.78;;;;;;;11.02;73.98;99844.47;5119130;28;20048;-68
2023/03/17 06:38:09;;;;;;;6.38;2.97;;;;;;;11.21;70.22;99846.53;5117376;28;20051;-70
2023/03/17 06:40:37;;;;;;;12.95;2.95;;;;;;;11.21;68.89;99854.78;5117315;28;20321;-68
2023/03/17 06:43:03;;;;;;;10.75;3.58;;;;;;;11.62;67.97;99855.41;5116663;28;20052;-71
2023/03/17 06:45:29;;;;;;;14.85;4.95;;;;;;;11.66;66.10;99861.00;5117045;28;20047;-71
2023/03/17 06:47:55;;;;;;;12.95;5.10;;;;;;;11.72;66.77;99856.84;5116565;28;20066;-68
2023/03/17 06:50:21;;;;;;;11.63;5.25;;;;;;;11.37;65.74;99863.03;5117051;28;20142;-65
2023/03/17 06:52:46;;;;;;;16.02;5.03;;;;;;;11.22;67.03;99859.13;5116679;28;20048;-68
2023/03/17 06:55:12;;;;;;;9.88;4.72;;;;;;;11.42;68.10;99861.97;5116388;28;20508;-69
2023/03/17 06:57:39;;;;;;;17.05;3.97;;;;;;;12.19;65.55;99867.78;5116737;28;20055;-70
2023/03/17 07:00:06;;;;;;;9.13;4.25;;;;;;;11.96;62.67;99867.66;5116340;28;20427;-70
2023/03/17 07:02:32;;;;;;;10.27;3.72;;;;;;;12.44;62.02;99867.53;5116672;28;20075;-70
2023/03/17 07:04:59;;;;;;;13.23;4.05;;;;;;;12.29;61.76;99862.88;5116250;28;20044;-71
2023/03/17 07:07:25;;;;;;;8.77;3.58;;;;;;;11.76;62.73;99864.03;5116649;28;20052;-71
2023/03/17 07:09:51;;;;;;;7.78;3.22;;;;;;;12.52;61.39;99866.53;5116016;28;20059;-67
2023/03/17 07:12:17;;;;;;;10.50;3.85;;;;;;;12.99;60.01;99871.00;5116604;28;20052;-66
2023/03/17 07:14:44;;;;;;;10.10;3.75;;;;;;;13.12;59.94;99869.69;5116080;28;20059;-68
2023/03/17 07:17:12;;;;;;;9.85;3.00;;;;;;;12.88;60.88;99881.81;5118727;28;20436;-70
2023/03/17 07:19:37;;;;;;;10.48;3.90;;;;;;;13.07;60.81;99871.97;5119877;28;20138;-68
2023/03/17 07:22:03;;;;;;;6.20;2.58;;;;;;;13.36;59.53;99876.88;5120084;28;20325;-66
2023/03/17 07:24:30;;;;;;;5.00;2.22;;;;;;;13.46;58.51;99874.66;5120038;28;20052;-65
2023/03/17 07:26:56;;;;;;;5.90;2.83;;;;;;;12.90;59.23;99873.22;5120282;28;20059;-73
2023/03/17 07:29:22;;;;;;;12.00;3.25;;;;;;;12.70;60.26;99875.97;5120178;28;20138;-70
2023/03/17 07:31:49;;;;;;;9.10;2.17;;;;;;;12.63;58.92;99878.56;5120125;28;20052;-64
2023/03/17 07:34:15;;;;;;;5.95;1.52;;;;;;;13.47;57.53;99882.56;5120031;28;20146;-68
2023/03/17 07:36:41;;;;;;;5.78;2.00;;;;;;;13.52;56.01;99873.97;5119683;28;20051;-69
2023/03/17 07:39:07;;;;;;;8.77;2.22;;;;;;;13.58;57.18;99885.50;5120290;28;20491;-69
2023/03/17 07:41:34;;;;;;;4.38;1.70;;;;;;;13.78;56.70;99892.53;5119572;28;20138;-64
2023/03/17 07:44:00;;;;;;;5.13;1.65;;;;;;;13.38;55.82;99887.50;5119914;28;20302;-69
2023/03/17 07:46:26;;;;;;;6.35;1.83;;;;;;;13.37;57.58;99894.19;5119519;28;20411;-68
2023/03/17 07:48:53;;;;;;;6.20;2.03;;;;;;;13.77;55.37;99901.97;5120060;28;20188;-69
2023/03/17 07:51:21;;;;;;;2.47;1.35;;;;;;;12.98;56.00;99898.91;5119780;28;20048;-66
2023/03/17 07:53:48;;;;;;;9.20;1.90;;;;;;;12.95;55.83;99895.72;5119412;28;20052;-63
2023/03/17 07:56:15;;;;;;;5.28;1.48;;;;;;;12.38;55.61;99900.00;5119867;28;20047;-67
2023/03/17 07:58:41;;;;;;;4.43;1.65;;;;;;;12.72;55.93;99903.88;5119265;28;20115;-62
2023/03/17 08:01:08;;;;;;;3.72;1.52;;;;;;;12.23;55.54;99898.13;5119600;28;20093;-69
2023/03/17 08:03:35;;;;;;;6.00;1.50;;;;;;;13.50;55.35;99908.56;5119732;28;20052;-66
2023/03/17 08:06:02;;;;;;;5.10;1.75;;;;;;;13.44;54.52;99910.84;5119505;28;20051;-68
2023/03/17 08:08:29;;;;;;;8.05;1.90;;;;;;;12.54;54.53;99902.72;5119339;28;20109;-66
2023/03/17 08:11:00;;;;;;;2.72;1.60;;;;;;;13.01;54.57;99909.97;5119666;28;20048;-65
2023/03/17 08:13:26;;;;;;;2.38;0.98;;;;;;;13.27;53.99;99916.81;5119109;28;20052;-69
2023/03/17 08:15:52;;;;;;;4.32;1.38;;;;;;;12.75;55.22;99920.84;5119539;28;20135;-62
2023/03/17 08:18:18;;;;;;;5.72;1.90;;;;;;;12.68;55.28;99914.03;5119233;28;20141;-70
2023/03/17 08:20:44;;;;;;;3.10;1.52;;;;;;;11.35;55.61;99914.75;5119441;28;20435;-70
2023/03/17 08:23:11;;;;;;;3.13;1.27;;;;;;;11.35;56.11;99925.72;5119304;28;20051;-69
2023/03/17 08:25:38;;;;;;;9.02;1.85;;;;;;;12.01;54.21;99924.28;5119020;28;20075;-69
2023/03/17 08:28:04;;;;;;;2.88;1.58;;;;;;;11.99;56.34;99913.63;5119007;28;20113;-66
2023/03/17 08:30:30;;;;;;;1.15;1.05;;;;;;;11.53;55.97;99927.00;5118963;28;20143;-69
2023/03/17 08:32:56;;;;;;;5.05;1.30;;;;;;;12.00;55.34;99920.75;5119292;28;20047;-69
2023/03/17 08:35:22;;;;;;;6.10;1.50;;;;;;;11.93;54.16;99922.53;5118924;28;20052;-66
2023/03/17 08:37:48;;;;;;;3.38;1.13;;;;;;;11.51;55.31;99928.50;5118831;28;20401;-61
2023/03/17 08:40:18;;;;;;;3.65;1.00;;;;;;;11.91;54.32;99933.06;5118592;28;20085;-62
2023/03/17 08:42:45;;;;;;;4.40;1.13;;;;;;;10.71;54.69;99935.69;5119197;28;20051;-70
2023/03/17 08:45:11;;;;;;;2.53;1.15;;;;;;;11.29;56.00;99932.63;5118711;28;20058;-68
2023/03/17 08:47:38;;;;;;;2.55;1.10;;;;;;;11.41;55.63;99931.75;5118528;28;20093;-69
2023/03/17 08:50:08;;;;;;;3.65;1.02;;;;;;;11.07;55.64;99937.53;5118859;28;20052;-66
2023/03/17 08:52:35;;;;;;;6.30;1.30;;;;;;;10.69;56.77;99939.91;5118649;28;20044;-60
2023/03/17 08:55:01;;;;;;;2.90;1.48;;;;;;;10.74;57.48;99937.75;5118321;28;20054;-64
2023/03/17 08:57:27;;;;;;;6.85;1.58;;;;;;;10.77;55.54;99945.28;5118609;28;20128;-64
2023/03/17 08:59:53;;;;;;;5.95;1.50;;;;;;;9.80;56.61;99948.88;5118568;28;20488;-64
2023/03/17 09:02:20;;;;;;;3.08;1.10;;;;;;;9.56;56.37;99950.41;5118650;28;20056;-67
2023/03/17 09:04:46;;;;;;;4.72;1.30;;;;;;;9.48;57.90;99943.09;5118725;28;20047;-60
2023/03/17 09:07:12;;;;;;;3.30;1.20;;;;;;;9.84;57.91;99939.63;5118324;28;20051;-66
2023/03/17 09:09:38;;;;;;;4.35;1.40;;;;;;;11.22;59.00;99946.16;5118700;28;20070;-65
2023/03/17 09:12:06;;;;;;;2.92;1.00;;;;;;;11.24;56.55;99947.41;5118816;28;20058;-71
2023/03/17 09:14:33;;;;;;;3.90;1.17;;;;;;;11.17;55.70;99957.38;5118005;28;20100;-71
2023/03/17 09:16:59;;;;;;;2.15;1.20;;;;;;;11.01;54.64;99957.31;5118440;28;20079;-63
2023/03/17 09:19:25;;;;;;;16.83;2.60;;;;;;;11.97;55.81;99954.44;5118144;28;20055;-66
2023/03/17 09:21:51;;;;;;;7.55;1.20;;;;;;;11.89;54.88;99949.09;5118304;28;20143;-61
2023/03/17 09:24:17;;;;;;;4.72;1.23;;;;;;;11.98;54.50;99963.47;5118173;28;20114;-64
2023/03/17 09:26:44;;;;;;;2.72;0.90;;;;;;;11.96;54.27;99947.34;5118176;28;20138;-68
2023/03/17 09:29:10;;;;;;;2.33;0.88;;;;;;;11.54;54.27;99963.50;5117830;28;20421;-65
2023/03/17 09:31:37;;;;;;;1.88;1.00;;;;;;;12.18;52.15;99956.91;5118020;28;20146;-66
2023/03/17 09:34:04;;;;;;;1.38;0.90;;;;;;;12.07;51.41;99950.34;5117656;28;20048;-70
2023/03/17 09:36:31;;;;;;;1.85;1.10;;;;;;;12.05;52.67;99954.59;5118128;28;20051;-63
2023/03/17 09:38:57;;;;;;;2.70;0.98;;;;;;;11.20;53.46;99960.22;5117455;28;20047;-68
2023/03/17 09:41:57;;;;;;;1.80;1.10;;;;;;;12.54;52.35;99957.72;5117737;28;20324;-63
2023/03/17 09:44:49;;;;;;;3.15;1.20;;;;;;;12.58;50.24;99952.31;5111308;28;20047;-66
2023/03/17 09:47:37;;;;;;;3.70;1.10;;;;;;;10.24;52.67;99955.38;5118334;28;20051;-69
2023/03/17 09:50:09;;;;;;;3.05;1.45;;;;;;;11.92;53.71;99951.16;5118322;28;20135;-67
2023/03/17 09:52:35;;;;;;;7.13;1.15;;;;;;;12.21;53.52;99952.66;5118358;28;20122;-74
2023/03/17 09:55:04;;;;;;;2.05;0.95;;;;;;;12.29;51.94;99956.34;5117586;28;20051;-63
2023/03/17 09:57:34;;;;;;;3.90;1.30;;;;;;;11.60;54.32;99958.56;5117585;28;20124;-64
2023/03/17 10:00:05;;;;;;;2.75;1.63;;;;;;;11.90;55.79;99961.72;5117611;28;20078;-68
2023/03/17 10:02:34;;;;;;;3.17;1.38;;;;;;;10.34;53.95;99954.16;5117770;28;20051;-67
2023/03/17 10:05:09;;;;;;;5.97;1.73;;;;;;;10.52;54.57;99960.19;5117352;28;20134;-68
2023/03/17 10:07:41;;;;;;;3.88;1.27;;;;;;;11.12;55.61;99952.94;5116955;28;20386;-65
2023/03/17 10:10:14;;;;;;;6.35;1.40;;;;;;;10.98;55.71;99953.31;5117368;28;20058;-66
2023/03/17 10:12:47;;;;;;;1.92;1.73;;;;;;;11.42;57.27;99947.06;5117615;28;20085;-59
2023/03/17 10:15:20;;;;;;;2.57;1.40;;;;;;;11.36;56.65;99948.47;5116962;28;20416;-63
2023/03/17 10:17:47;;;;;;;1.60;1.03;;;;;;;11.08;56.31;99950.09;5116950;28;20111;-67
2023/03/17 10:20:16;;;;;;;3.97;1.15;;;;;;;12.10;54.85;99949.66;5117121;28;20051;-64
2023/03/17 10:22:46;;;;;;;2.78;1.23;;;;;;;11.32;55.84;99956.63;5117161;28;20115;-67
2023/03/17 10:25:15;;;;;;;2.10;1.33;;;;;;;11.38;54.97;99952.47;5117333;28;20047;-68
2023/03/17 10:27:48;;;;;;;5.30;1.35;;;;;;;9.96;55.17;99951.72;5117156;28;20134;-67
2023/03/17 10:30:16;;;;;;;4.30;0.95;;;;;;;9.46;56.55;99952.75;5117270;28;20360;-71
2023/03/17 10:32:42;;;;;;;3.88;1.30;;;;;;;9.73;56.56;99937.66;5116756;28;20142;-68
2023/03/17 10:35:11;;;;;;;2.78;1.23;;;;;;;10.15;56.91;99943.72;5117169;28;20083;-66
2023/03/17 10:37:37;;;;;;;3.30;1.35;;;;;;;8.90;59.94;99950.41;5116671;28;20143;-68
2023/03/17 10:40:09;;;;;;;3.47;1.23;;;;;;;10.03;61.17;99940.97;5117257;28;20166;-64
2023/03/17 10:42:46;;;;;;;5.45;1.35;;;;;;;10.12;60.44;99947.94;5116904;28;20055;-65
2023/03/17 10:45:16;;;;;;;3.67;1.30;;;;;;;10.54;58.60;99957.91;5116921;28;20352;-65
2023/03/17 10:47:46;;;;;;;9.55;1.65;;;;;;;8.82;59.37;99946.59;5116843;28;20352;-73
2023/03/17 10:50:21;;;;;;;5.32;1.90;;;;;;;10.02;57.50;99944.88;5116677;28;20062;-64
2023/03/17 10:52:52;;;;;;;2.88;1.45;;;;;;;10.36;58.22;99944.44;5116666;28;20138;-64
2023/03/17 10:55:21;;;;;;;2.20;1.20;;;;;;;9.28;59.42;99936.53;5116803;28;20344;-68
2023/03/17 10:57:51;;;;;;;4.32;1.42;;;;;;;9.28;60.25;99946.69;5117022;28;20317;-66
2023/03/17 11:00:19;;;;;;;3.63;1.42;;;;;;;8.56;64.22;99935.84;5116670;28;20138;-71
2023/03/17 11:02:51;;;;;;;7.15;1.25;;;;;;;9.55;61.60;99937.84;5116641;28;20055;-66
2023/03/17 11:05:20;;;;;;;3.47;1.27;;;;;;;9.87;62.93;99944.41;5116778;28;20051;-65
2023/03/17 11:07:46;;;;;;;3.22;1.33;;;;;;;10.56;60.25;99939.16;5116628;28;20447;-73
2023/03/17 11:10:19;;;;;;;3.28;1.27;;;;;;;10.32;59.14;99945.47;5116788;28;20051;-68
2023/03/17 11:12:49;;;;;;;2.75;1.10;;;;;;;9.64;58.83;99937.75;5116348;28;20055;-71
2023/03/17 11:15:18;;;;;;;2.85;1.00;;;;;;;8.97;59.79;99944.41;5116762;28;20124;-72
2023/03/17 11:17:53;;;;;;;1.33;0.80;;;;;;;8.81;60.45;99942.25;5116308;28;20047;-72
2023/03/17 11:20:31;;;;;;;2.90;1.10;;;;;;;9.06;59.71;99934.16;5116581;28;20142;-68
2023/03/17 11:23:04;;;;;;;2.35;1.35;;;;;;;8.42;61.92;99927.09;5116247;28;20051;-66
2023/03/17 11:25:31;;;;;;;2.72;1.13;;;;;;;8.30;63.48;99936.00;5116516;28;20142;-71
2023/03/17 11:28:06;;;;;;;2.63;1.10;;;;;;;7.90;62.42;99939.09;5116484;28;20079;-69
2023/03/17 11:30:36;;;;;;;1.98;1.10;;;;;;;7.86;66.96;99926.41;5115802;28;20043;-69
2023/03/17 11:33:12;;;;;;;3.13;1.20;;;;;;;8.00;68.29;99922.34;5116442;28;20147;-69